メインページ
METAR-TAF:

METAR-TAF

空港 :

オデッサ, ウクライナ

オデッサ国際空港

緯度: 46-26N, 経度: 030-46E, 海抜: 42m

現時点の気象観測

当レポートは28分前の11:30(UTC)に作成
の風 17kt
気温 13°C
湿度 54%
気圧 1022 hPa
視程10km以上
1,500メートル以下は雲なし、積乱雲なし

METAR: UKOO 241130Z 18009MPS CAVOK 13/04 Q1022 R16/090060 NOSIG

時間: 13:58 (11:58 UTC)

予報

当レポートは48分前の11:10(UTC)に作成
予報は24日の 12時(UTC)から 25日の 12時(UTC)まで有効
南/南西の風 14kt、最大29ktの突風を伴う
視程: 6000m
高度400ftの雲は散在している
高度700ftの千切れ雲あり
高度1700ftの雲は散在している, 積乱雲.
確率 40% :
24日の 12時(UTC)から 24日の 18時(UTC)まで一時的に
激しい雷雨, 小雨
24日の 18時(UTC)から 24日の 19時(UTC)まで徐々に
西の風 6kt
視程: 2100m
弱いにわか雨, 靄
24日の 22時(UTC)から 24日の 23時(UTC)まで徐々に
の風 14kt、最大29ktの突風を伴う

TAF: UKOO 241110Z 2412/2512 20007G15MPS 6000 SCT004 BKN007 SCT017CB PROB40 TEMPO 2412/2418 -TSRA BECMG 2418/2419 28003MPS 2100 -SHRA BR BECMG 2422/2423 36007G15MPS TX14/2412Z TN02/2504Z

4,000以上の空港の気象観測と天気予報(METAR報とTAF報)

利用可能な観測所は地図上に黄色い丸と赤い丸で示す。

丸の上にカーソルを重ねると観測所名を参照できる。

次にクリックすると気象観測と天気予報を参照できる。

マップの切り替え:黒色「×」印の緑ボタンをクリックして拡大、「-」印の緑ボタンをクリックして縮小、緑色の三角印をクリックして隣りの地図に切り替え


METAR-TAF: